Time;durP1;ratioP1;P1;durP2;ratioP2;P2;SDS_P1;SDS_P2;PMS_P1;PMS_P2;Temp;Humidity;BMP_temperature;BMP_pressure;BME280_temperature;BME280_humidity;BME280_pressure;Samples;Min_cycle;Max_cycle;Signal;HPM_P1;HPM_P2
2022/08/16 00:02:24;;;;;;;15.95;14.55;;;;;;;23.24;100.00;98741.41;5109831;28;20195;-57
2022/08/16 00:04:51;;;;;;;16.17;14.68;;;;;;;23.16;100.00;98735.00;5110264;28;20731;-57
2022/08/16 00:07:18;;;;;;;20.20;15.70;;;;;;;23.09;100.00;98738.38;5110213;28;20195;-57
2022/08/16 00:09:45;;;;;;;17.17;15.52;;;;;;;23.06;100.00;98739.47;5109813;28;20200;-58
2022/08/16 00:12:12;;;;;;;17.77;15.55;;;;;;;22.98;100.00;98736.72;5110254;28;20199;-58
2022/08/16 00:14:39;;;;;;;18.20;16.33;;;;;;;23.01;100.00;98733.78;5109373;28;20215;-57
2022/08/16 00:17:06;;;;;;;19.10;17.10;;;;;;;22.91;100.00;98730.31;5107860;28;20633;-59
2022/08/16 00:19:35;;;;;;;18.30;15.70;;;;;;;22.88;100.00;98730.59;5108905;28;20195;-57
2022/08/16 00:22:02;;;;;;;18.27;16.63;;;;;;;22.92;100.00;98731.97;5108499;28;20226;-57
2022/08/16 00:24:30;;;;;;;18.45;16.55;;;;;;;22.85;100.00;98733.53;5108597;28;20194;-58
2022/08/16 00:26:57;;;;;;;18.38;16.60;;;;;;;22.76;100.00;98739.66;5110043;28;20255;-57
2022/08/16 00:29:24;;;;;;;17.00;15.23;;;;;;;22.74;100.00;98736.28;5109921;28;20213;-58
2022/08/16 00:31:52;;;;;;;19.00;16.08;;;;;;;22.78;100.00;98735.91;5109773;28;20207;-59
2022/08/16 00:34:22;;;;;;;17.13;15.60;;;;;;;22.81;100.00;98745.34;5113623;28;20226;-59
2022/08/16 00:36:50;;;;;;;17.88;16.08;;;;;;;22.72;100.00;98752.28;5113948;28;20202;-60
2022/08/16 00:39:19;;;;;;;17.95;16.15;;;;;;;22.66;100.00;98752.03;5114156;28;20593;-60
2022/08/16 00:41:48;;;;;;;17.35;15.75;;;;;;;22.66;100.00;98762.59;5113552;28;20202;-59
2022/08/16 00:44:17;;;;;;;18.08;15.70;;;;;;;22.72;100.00;98752.28;5114153;28;20186;-58
2022/08/16 00:46:51;;;;;;;18.70;17.00;;;;;;;22.65;100.00;98760.94;5114010;28;20205;-60
2022/08/16 00:49:18;;;;;;;19.30;16.33;;;;;;;22.70;100.00;98759.53;5113689;28;20191;-58
2022/08/16 00:51:46;;;;;;;18.83;16.83;;;;;;;22.70;100.00;98756.03;5114085;28;20610;-63
2022/08/16 00:54:14;;;;;;;17.88;16.08;;;;;;;22.60;100.00;98758.69;5113784;28;20228;-59
2022/08/16 00:56:45;;;;;;;17.13;15.45;;;;;;;22.56;100.00;98757.31;5113801;28;20205;-58
2022/08/16 00:59:14;;;;;;;17.73;15.98;;;;;;;22.52;100.00;98744.50;5113923;28;20710;-58
2022/08/16 01:01:43;;;;;;;18.30;16.55;;;;;;;22.50;100.00;98749.91;5113149;28;20202;-59
2022/08/16 01:04:12;;;;;;;20.27;18.08;;;;;;;22.56;100.00;98753.84;5113567;28;20707;-59
2022/08/16 01:06:40;;;;;;;19.90;17.92;;;;;;;22.62;100.00;98758.56;5113528;28;20194;-58
2022/08/16 01:09:08;;;;;;;29.52;24.60;;;;;;;22.66;100.00;98758.16;5113464;28;20191;-58
2022/08/16 01:11:37;;;;;;;20.83;18.45;;;;;;;22.66;100.00;98768.72;5112955;28;20285;-59
2022/08/16 01:14:10;;;;;;;18.77;16.45;;;;;;;22.69;100.00;98775.53;5113134;28;20218;-58
2022/08/16 01:16:38;;;;;;;19.13;17.13;;;;;;;22.78;100.00;98764.16;5113299;28;20202;-58
2022/08/16 01:19:13;;;;;;;18.15;16.45;;;;;;;22.74;100.00;98763.56;5113135;28;20199;-57
2022/08/16 01:21:47;;;;;;;17.38;15.55;;;;;;;22.70;100.00;98759.53;5113014;28;20619;-57
2022/08/16 01:24:22;;;;;;;16.08;14.60;;;;;;;22.65;100.00;98767.06;5113396;28;20581;-58
2022/08/16 01:26:51;;;;;;;17.10;15.55;;;;;;;22.59;100.00;98772.03;5113511;28;20200;-60
2022/08/16 01:29:22;;;;;;;17.15;15.35;;;;;;;22.64;100.00;98775.97;5113467;28;20752;-58
2022/08/16 01:31:49;;;;;;;18.27;15.23;;;;;;;22.69;100.00;98772.88;5113072;28;20615;-59
2022/08/16 01:34:19;;;;;;;19.55;15.90;;;;;;;22.73;100.00;98777.78;5113196;28;20319;-58
2022/08/16 01:36:46;;;;;;;18.60;16.50;;;;;;;22.60;100.00;98779.00;5113116;28;20197;-60
2022/08/16 01:39:17;;;;;;;17.65;15.95;;;;;;;22.51;100.00;98783.31;5113265;28;20732;-60
2022/08/16 01:41:46;;;;;;;18.63;16.80;;;;;;;22.44;100.00;98783.03;5112722;28;20282;-59
2022/08/16 01:44:13;;;;;;;19.30;17.02;;;;;;;22.44;100.00;98784.84;5112494;28;20226;-57
2022/08/16 01:46:42;;;;;;;20.42;16.67;;;;;;;22.48;100.00;98783.59;5112827;28;20587;-60
2022/08/16 01:49:12;;;;;;;18.23;16.27;;;;;;;22.41;100.00;98787.75;5112704;28;20201;-58
2022/08/16 01:51:41;;;;;;;22.50;16.70;;;;;;;22.38;100.00;98780.09;5112520;28;20668;-58
2022/08/16 01:54:09;;;;;;;24.45;17.30;;;;;;;22.40;100.00;98786.09;5112564;28;20219;-57
2022/08/16 01:56:36;;;;;;;19.92;17.83;;;;;;;22.25;100.00;98785.63;5112474;28;20289;-59
2022/08/16 01:59:08;;;;;;;22.00;17.00;;;;;;;22.25;100.00;98785.63;5112567;28;20201;-60
2022/08/16 02:01:35;;;;;;;20.10;16.98;;;;;;;22.20;100.00;98782.56;5112216;28;20602;-57
2022/08/16 02:04:03;;;;;;;24.50;16.42;;;;;;;22.17;100.00;98779.34;5112106;28;20218;-59
2022/08/16 02:06:30;;;;;;;22.00;17.80;;;;;;;22.15;100.00;98778.66;5112242;28;20209;-58
2022/08/16 02:08:58;;;;;;;18.52;16.73;;;;;;;22.23;100.00;98777.03;5112468;28;20204;-61
2022/08/16 02:11:25;;;;;;;19.25;17.45;;;;;;;22.23;100.00;98784.97;5112373;28;20277;-59
2022/08/16 02:13:54;;;;;;;19.48;17.50;;;;;;;22.23;100.00;98784.13;5112095;28;20214;-59
2022/08/16 02:16:22;;;;;;;18.92;16.83;;;;;;;22.28;100.00;98793.31;5101418;27;20299;-58
2022/08/16 02:18:49;;;;;;;19.40;16.52;;;;;;;22.20;100.00;98782.56;5091549;28;20222;-58
2022/08/16 02:21:17;;;;;;;18.45;16.50;;;;;;;22.17;100.00;98784.63;5090714;28;20238;-57
2022/08/16 02:23:45;;;;;;;19.90;17.35;;;;;;;22.25;100.00;98790.91;5091127;28;20215;-57
2022/08/16 02:26:14;;;;;;;19.70;17.70;;;;;;;22.13;100.00;98778.78;5098509;28;20256;-57
2022/08/16 02:28:41;;;;;;;19.38;17.50;;;;;;;22.22;100.00;98793.84;5111568;28;20219;-58
2022/08/16 02:31:10;;;;;;;20.10;18.13;;;;;;;22.28;100.00;98790.66;5111581;27;20245;-58
2022/08/16 02:33:39;;;;;;;19.77;16.60;;;;;;;22.36;100.00;98785.50;5111359;28;20301;-57
2022/08/16 02:36:07;;;;;;;18.42;16.50;;;;;;;22.36;100.00;98788.16;5111483;28;20291;-60
2022/08/16 02:38:34;;;;;;;19.00;17.02;;;;;;;22.27;100.00;98793.44;5111162;28;20222;-58
2022/08/16 02:41:03;;;;;;;18.65;16.58;;;;;;;22.27;100.00;98775.75;5111147;28;20233;-59
2022/08/16 02:43:32;;;;;;;17.92;16.00;;;;;;;22.23;100.00;98769.09;5111191;28;20620;-58
2022/08/16 02:45:59;;;;;;;17.42;15.70;;;;;;;22.39;100.00;98782.59;5111259;28;20218;-58
2022/08/16 02:48:27;;;;;;;17.90;16.02;;;;;;;22.52;100.00;98784.16;5110451;28;20254;-59
2022/08/16 02:50:57;;;;;;;22.10;16.70;;;;;;;22.55;100.00;98787.38;5110097;28;20222;-60
2022/08/16 02:53:24;;;;;;;17.27;15.50;;;;;;;22.59;100.00;98787.91;5110988;28;20221;-59
2022/08/16 02:55:51;;;;;;;16.88;15.20;;;;;;;22.60;100.00;98785.13;5110340;28;20689;-60
2022/08/16 02:58:19;;;;;;;16.60;14.90;;;;;;;22.59;100.00;98783.47;5109920;28;20214;-57
2022/08/16 03:00:46;;;;;;;19.63;14.75;;;;;;;22.52;100.00;98790.28;5110078;28;20323;-57
2022/08/16 03:03:13;;;;;;;17.73;15.60;;;;;;;22.44;100.00;98796.28;5109864;28;20663;-57
2022/08/16 03:05:40;;;;;;;17.05;15.45;;;;;;;22.45;100.00;98797.94;5110043;28;20218;-57
2022/08/16 03:08:09;;;;;;;18.05;16.13;;;;;;;22.42;100.00;98795.56;5109439;27;20264;-55
2022/08/16 03:10:36;;;;;;;17.80;15.57;;;;;;;22.44;100.00;98801.56;5106308;28;20211;-57
2022/08/16 03:13:04;;;;;;;17.80;16.00;;;;;;;22.38;100.00;98799.44;5109322;27;20230;-57
2022/08/16 03:15:32;;;;;;;20.27;16.30;;;;;;;22.47;100.00;98805.72;5110034;28;20683;-58
2022/08/16 03:17:59;;;;;;;18.17;16.33;;;;;;;22.50;100.00;98808.09;5110215;27;20602;-57
2022/08/16 03:20:26;;;;;;;18.38;16.52;;;;;;;22.45;100.00;98807.69;5109796;28;20351;-58
2022/08/16 03:22:53;;;;;;;17.40;15.60;;;;;;;22.36;100.00;98814.59;5127239;27;20358;-58
2022/08/16 03:25:22;;;;;;;18.80;16.20;;;;;;;22.30;100.00;98812.50;5122747;27;20218;-58
2022/08/16 03:27:49;;;;;;;17.80;16.20;;;;;;;22.25;100.00;98811.22;5109305;28;20191;-58
2022/08/16 03:30:18;;;;;;;18.67;16.77;;;;;;;22.23;100.00;98829.91;5107026;28;20186;-59
2022/08/16 03:32:46;;;;;;;20.90;17.02;;;;;;;22.16;100.00;98831.38;5109585;28;20730;-57
2022/08/16 03:35:13;;;;;;;19.27;16.67;;;;;;;22.15;100.00;98827.06;5108312;28;20210;-57
2022/08/16 03:37:42;;;;;;;21.98;17.75;;;;;;;22.17;100.00;98838.34;5109033;28;20201;-58
2022/08/16 03:40:11;;;;;;;21.13;18.08;;;;;;;22.09;100.00;98844.31;5105572;28;20194;-58
2022/08/16 03:42:40;;;;;;;20.60;18.48;;;;;;;21.86;100.00;98839.31;5108016;28;20591;-58
2022/08/16 03:45:08;;;;;;;20.38;17.77;;;;;;;21.84;100.00;98838.59;5106557;28;20648;-58
2022/08/16 03:47:35;;;;;;;23.90;18.55;;;;;;;21.77;100.00;98838.28;5106335;28;20209;-58
2022/08/16 03:50:05;;;;;;;22.23;18.23;;;;;;;21.79;100.00;98835.50;5109081;28;20194;-58
2022/08/16 03:52:32;;;;;;;20.35;18.15;;;;;;;21.70;100.00;98840.59;5108620;28;20191;-58
2022/08/16 03:54:59;;;;;;;19.70;17.60;;;;;;;21.72;100.00;98840.47;5108830;28;20253;-58
2022/08/16 03:57:27;;;;;;;22.35;18.35;;;;;;;21.68;100.00;98839.88;5109799;28;20698;-58
2022/08/16 03:59:55;;;;;;;21.02;18.83;;;;;;;21.77;100.00;98837.44;5110043;28;20285;-57
2022/08/16 04:02:23;;;;;;;23.73;19.48;;;;;;;21.75;100.00;98824.38;5107838;28;20200;-58
2022/08/16 04:04:50;;;;;;;26.08;19.05;;;;;;;21.99;100.00;98834.66;5106903;28;20202;-58
2022/08/16 04:07:17;;;;;;;21.08;18.70;;;;;;;22.18;100.00;98826.81;5109995;28;20648;-59
2022/08/16 04:09:44;;;;;;;22.42;19.75;;;;;;;22.44;100.00;98828.00;5109679;28;20194;-57
2022/08/16 04:12:12;;;;;;;20.88;18.08;;;;;;;23.06;100.00;98833.94;5109002;28;20319;-57
2022/08/16 04:14:39;;;;;;;18.85;16.85;;;;;;;24.02;95.44;98833.78;5108189;28;20302;-56
2022/08/16 04:17:08;;;;;;;19.10;17.20;;;;;;;25.11;87.20;98838.19;5109209;28;20190;-55
2022/08/16 04:19:35;;;;;;;18.95;16.95;;;;;;;25.78;81.25;98850.03;5109085;28;20259;-58
2022/08/16 04:22:02;;;;;;;20.40;16.30;;;;;;;26.59;77.06;98852.25;5108946;28;20322;-57
2022/08/16 04:24:29;;;;;;;21.80;16.73;;;;;;;27.58;73.03;98855.75;5109318;28;20594;-57
2022/08/16 04:26:56;;;;;;;19.67;16.83;;;;;;;28.85;66.65;98861.88;5108829;28;20198;-58
2022/08/16 04:29:23;;;;;;;21.05;16.70;;;;;;;29.74;62.30;98856.84;5109237;28;20201;-58
2022/08/16 04:31:51;;;;;;;17.13;15.43;;;;;;;30.30;58.55;98848.22;5109595;28;20243;-58
2022/08/16 04:34:20;;;;;;;17.25;15.55;;;;;;;31.33;55.56;98855.19;5109368;28;20276;-58
2022/08/16 04:36:47;;;;;;;18.55;15.70;;;;;;;32.13;52.60;98864.69;5108598;28;20256;-58
2022/08/16 04:39:14;;;;;;;17.15;15.75;;;;;;;32.20;51.16;98874.44;5107997;28;20202;-58
2022/08/16 04:41:41;;;;;;;16.33;14.90;;;;;;;32.67;50.26;98873.63;5108710;28;20198;-58
2022/08/16 04:44:08;;;;;;;17.58;14.45;;;;;;;33.53;48.63;98885.44;5108912;28;20711;-58
2022/08/16 04:46:35;;;;;;;17.08;14.95;;;;;;;34.46;45.50;98893.44;5108314;28;20710;-58
2022/08/16 04:49:03;;;;;;;16.65;15.18;;;;;;;34.82;44.68;98903.69;5108326;28;20215;-57
2022/08/16 04:51:31;;;;;;;16.40;14.73;;;;;;;35.45;42.94;98899.19;5108972;28;20213;-58
2022/08/16 04:53:58;;;;;;;19.92;14.80;;;;;;;35.37;42.64;98893.22;5108983;28;20584;-58
2022/08/16 04:56:25;;;;;;;18.83;15.38;;;;;;;35.75;41.96;98898.56;5108720;28;20266;-58
2022/08/16 04:58:52;;;;;;;15.23;13.93;;;;;;;35.80;41.27;98886.03;5108720;28;20199;-57
2022/08/16 05:01:19;;;;;;;19.20;14.30;;;;;;;36.38;39.90;98883.81;5108265;28;20282;-57
2022/08/16 05:03:46;;;;;;;15.73;14.35;;;;;;;36.99;38.73;98882.84;5108768;28;20208;-58
2022/08/16 05:06:13;;;;;;;16.58;13.57;;;;;;;37.84;37.60;98881.78;5109004;28;20586;-58
2022/08/16 05:08:41;;;;;;;14.98;13.60;;;;;;;38.05;36.41;98884.69;5109841;28;20608;-59
2022/08/16 05:11:11;;;;;;;15.38;13.77;;;;;;;38.33;35.63;98881.28;5108057;28;20581;-58
2022/08/16 05:13:40;;;;;;;15.40;13.80;;;;;;;38.27;36.05;98887.66;5108272;28;20589;-57
2022/08/16 05:16:09;;;;;;;16.23;14.88;;;;;;;38.52;35.84;98895.50;5108247;28;20245;-58
2022/08/16 05:18:37;;;;;;;17.20;13.38;;;;;;;38.90;35.14;98889.53;5110282;28;20284;-59
2022/08/16 05:21:04;;;;;;;15.07;13.85;;;;;;;38.71;34.76;98898.94;5112840;28;20610;-56
2022/08/16 05:23:31;;;;;;;14.75;13.20;;;;;;;38.10;36.46;98884.88;5111887;28;20696;-58
2022/08/16 05:26:00;;;;;;;15.18;13.75;;;;;;;38.04;35.54;98891.19;5111804;28;20194;-58
2022/08/16 05:28:27;;;;;;;14.35;12.95;;;;;;;37.64;36.85;98890.25;5111336;28;20193;-59
2022/08/16 05:30:54;;;;;;;14.90;13.55;;;;;;;37.70;36.29;98890.13;5111913;28;20200;-58
2022/08/16 05:33:21;;;;;;;13.93;12.57;;;;;;;38.00;35.93;98887.31;5112049;28;20190;-58
2022/08/16 05:35:49;;;;;;;14.27;13.07;;;;;;;38.12;35.44;98885.47;5111460;28;20713;-59
2022/08/16 05:38:16;;;;;;;18.17;13.45;;;;;;;38.25;35.72;98878.13;5111570;28;20289;-58
2022/08/16 05:40:43;;;;;;;13.60;12.35;;;;;;;39.17;33.90;98881.63;5108908;28;20279;-58
2022/08/16 05:43:11;;;;;;;14.55;12.25;;;;;;;39.44;33.66;98882.69;5111503;28;20200;-58
2022/08/16 05:45:38;;;;;;;16.77;13.65;;;;;;;40.04;32.36;98882.00;5112450;28;20585;-57
2022/08/16 05:48:05;;;;;;;14.15;12.82;;;;;;;40.29;32.54;98880.75;5112741;28;20202;-58
2022/08/16 05:50:32;;;;;;;13.48;12.32;;;;;;;40.77;31.42;98891.69;5112758;28;20190;-58
2022/08/16 05:52:59;;;;;;;13.80;12.50;;;;;;;40.63;31.94;98901.31;5112565;28;20241;-57
2022/08/16 05:55:26;;;;;;;14.40;12.75;;;;;;;39.95;32.13;98907.16;5112554;28;20262;-58
2022/08/16 05:57:53;;;;;;;13.85;12.30;;;;;;;39.75;32.72;98915.75;5112866;28;20208;-59
2022/08/16 06:00:22;;;;;;;14.07;12.77;;;;;;;39.72;33.09;98906.22;5112735;28;20595;-57
2022/08/16 06:02:49;;;;;;;17.42;11.77;;;;;;;40.10;32.26;98902.75;5112423;28;20201;-58
2022/08/16 06:05:17;;;;;;;13.35;12.10;;;;;;;40.78;31.60;98898.78;5112396;27;20194;-59
2022/08/16 06:07:43;;;;;;;13.98;12.68;;;;;;;41.03;31.42;98905.56;5112262;28;20194;-59
2022/08/16 06:10:12;;;;;;;13.63;12.32;;;;;;;41.43;31.23;98889.63;5112114;28;20200;-59
2022/08/16 06:12:39;;;;;;;12.90;11.68;;;;;;;41.24;31.10;98891.13;5112186;28;20200;-58
2022/08/16 06:15:10;;;;;;;13.38;12.27;;;;;;;41.53;30.35;98888.94;5109691;28;20335;-57
2022/08/16 06:17:39;;;;;;;14.02;12.43;;;;;;;42.13;29.09;98891.28;5112007;28;20196;-57
2022/08/16 06:32:17;;;;;;;11.82;10.98;;;;;;;40.28;30.70;98889.97;5066964;28;20565;-58
2022/08/16 06:34:44;;;;;;;11.18;10.57;;;;;;;39.60;30.91;98880.22;5067148;28;20210;-57
2022/08/16 06:37:10;;;;;;;12.20;11.35;;;;;;;39.17;31.37;98873.47;5066801;28;20199;-57
2022/08/16 06:39:38;;;;;;;11.55;10.60;;;;;;;39.40;31.04;98864.34;5066812;28;20213;-58
2022/08/16 06:42:05;;;;;;;15.68;14.43;;;;;;;39.51;31.34;98849.91;5066855;28;20678;-58
2022/08/16 06:44:32;;;;;;;11.80;11.02;;;;;;;39.51;30.90;98855.34;5066747;28;20196;-58
2022/08/16 06:46:59;;;;;;;13.48;12.02;;;;;;;40.31;30.38;98862.25;5067127;28;20628;-58
2022/08/16 06:49:27;;;;;;;12.13;11.32;;;;;;;40.49;29.53;98851.06;5066590;28;20195;-57
2022/08/16 06:51:54;;;;;;;12.50;11.57;;;;;;;41.03;29.25;98857.41;5066667;28;20207;-57
2022/08/16 06:54:21;;;;;;;12.38;11.48;;;;;;;41.32;28.43;98855.22;5066571;28;20196;-57
2022/08/16 06:56:48;;;;;;;12.68;11.57;;;;;;;41.10;29.17;98862.63;5066358;28;20211;-57
2022/08/16 06:59:16;;;;;;;17.60;15.98;;;;;;;41.20;28.82;98852.66;5066146;28;20225;-57
2022/08/16 07:01:43;;;;;;;11.88;10.93;;;;;;;41.39;29.19;98855.84;5066733;28;20227;-58
2022/08/16 07:04:10;;;;;;;16.55;11.25;;;;;;;41.45;28.16;98856.69;5064942;28;20210;-58
2022/08/16 07:06:39;;;;;;;10.70;9.90;;;;;;;40.67;29.18;98850.72;5065857;28;20286;-57
2022/08/16 07:09:06;;;;;;;13.15;11.05;;;;;;;40.88;29.27;98855.34;5066704;28;20206;-57
2022/08/16 07:11:32;;;;;;;11.70;10.63;;;;;;;40.93;29.18;98846.41;5066452;28;20196;-57
2022/08/16 07:13:59;;;;;;;12.25;11.23;;;;;;;40.87;28.93;98848.25;5066426;28;20253;-59
2022/08/16 07:16:26;;;;;;;11.63;10.77;;;;;;;40.86;29.04;98848.53;5066061;28;20206;-57
2022/08/16 07:18:54;;;;;;;12.20;11.15;;;;;;;41.11;28.59;98848.75;5066135;28;20206;-57
2022/08/16 07:21:22;;;;;;;12.85;11.73;;;;;;;41.62;28.24;98843.78;5065644;28;20607;-58
2022/08/16 07:23:52;;;;;;;12.02;11.02;;;;;;;42.16;27.07;98838.94;5065578;28;20199;-58
2022/08/16 07:26:22;;;;;;;13.10;12.02;;;;;;;42.35;27.06;98851.03;5066084;28;20602;-56
2022/08/16 07:28:49;;;;;;;12.90;10.68;;;;;;;43.03;26.74;98856.44;5065938;28;20200;-57
2022/08/16 07:31:17;;;;;;;14.93;13.60;;;;;;;43.55;25.80;98858.16;5075600;28;20289;-57
2022/08/16 07:33:44;;;;;;;12.13;11.20;;;;;;;43.83;25.96;98864.97;5072523;28;20195;-58
2022/08/16 07:36:12;;;;;;;15.95;13.68;;;;;;;43.84;24.89;98858.41;5072480;28;20200;-59
2022/08/16 07:38:40;;;;;;;16.88;14.52;;;;;;;43.03;25.48;98853.72;5071830;28;20207;-58
2022/08/16 07:41:08;;;;;;;17.50;14.15;;;;;;;43.25;25.57;98867.16;5071956;28;20223;-58
2022/08/16 07:43:36;;;;;;;12.85;11.57;;;;;;;43.82;25.18;98877.81;5072273;28;20203;-58
2022/08/16 07:46:03;;;;;;;11.68;10.68;;;;;;;44.14;24.49;98886.50;5079374;28;20564;-55
2022/08/16 07:48:30;;;;;;;11.88;10.45;;;;;;;44.71;23.85;98877.00;5073698;28;20329;-56
2022/08/16 07:50:57;;;;;;;11.10;10.30;;;;;;;44.39;23.99;98876.63;5071583;28;20194;-56
2022/08/16 07:53:24;;;;;;;15.52;10.43;;;;;;;44.26;24.29;98872.53;5071749;28;20194;-58
2022/08/16 07:55:52;;;;;;;11.68;10.55;;;;;;;44.36;24.07;98861.56;5071660;28;20207;-58
2022/08/16 07:58:20;;;;;;;11.75;10.57;;;;;;;44.90;23.73;98870.91;5071748;28;20637;-58
2022/08/16 08:00:47;;;;;;;11.88;10.90;;;;;;;44.83;23.92;98871.22;5072129;28;20230;-58
2022/08/16 08:03:14;;;;;;;12.05;11.25;;;;;;;44.27;24.14;98871.44;5071702;28;20573;-57
2022/08/16 08:05:41;;;;;;;16.80;10.85;;;;;;;44.24;24.31;98868.44;5068967;28;20195;-57
2022/08/16 08:08:08;;;;;;;12.27;10.43;;;;;;;43.89;24.26;98872.06;5071533;28;20195;-57
2022/08/16 08:10:35;;;;;;;11.98;11.18;;;;;;;43.44;24.68;98862.81;5071593;28;20702;-56
2022/08/16 08:13:02;;;;;;;11.48;10.73;;;;;;;43.10;25.63;98860.56;5071837;28;20231;-57
2022/08/16 08:15:31;;;;;;;12.65;9.38;;;;;;;43.63;23.97;98861.16;5071908;28;20617;-56
2022/08/16 08:17:58;;;;;;;10.35;9.45;;;;;;;43.91;23.86;98862.47;5071580;28;20591;-56
2022/08/16 08:20:26;;;;;;;11.40;9.88;;;;;;;44.08;23.82;98859.47;5070657;28;20734;-56
2022/08/16 08:22:55;;;;;;;11.13;9.77;;;;;;;43.97;23.84;98863.31;5071126;28;20203;-56
2022/08/16 08:25:22;;;;;;;10.70;9.43;;;;;;;44.57;23.15;98850.53;5068529;28;20187;-56
2022/08/16 08:27:49;;;;;;;9.45;8.65;;;;;;;44.57;22.93;98856.03;5070878;28;20206;-56
2022/08/16 08:30:17;;;;;;;10.63;9.73;;;;;;;44.17;22.84;98855.06;5065082;28;20720;-56
2022/08/16 08:32:45;;;;;;;9.93;9.07;;;;;;;44.16;23.01;98858.88;5063257;28;20222;-57
2022/08/16 08:35:12;;;;;;;10.40;9.60;;;;;;;44.24;23.11;98857.50;5070922;28;20579;-56
2022/08/16 08:37:39;;;;;;;10.02;9.02;;;;;;;44.66;22.37;98854.31;5071316;28;20675;-57
2022/08/16 08:40:10;;;;;;;11.32;10.02;;;;;;;44.68;22.26;98846.66;5071245;28;20187;-56
2022/08/16 08:42:39;;;;;;;10.27;9.02;;;;;;;44.15;22.94;98844.38;5071409;28;20619;-55
2022/08/16 08:45:06;;;;;;;9.23;8.63;;;;;;;43.94;22.57;98850.16;5070285;28;20203;-57
2022/08/16 08:47:34;;;;;;;11.68;9.35;;;;;;;43.58;22.94;98838.47;5071120;28;20195;-57
2022/08/16 08:50:02;;;;;;;9.10;8.32;;;;;;;43.23;23.42;98844.78;5071068;28;20637;-57
2022/08/16 08:52:29;;;;;;;9.30;8.45;;;;;;;43.10;23.49;98838.72;5071085;28;20213;-58
2022/08/16 08:54:57;;;;;;;10.68;9.55;;;;;;;42.72;24.33;98839.19;5070936;28;20196;-57
2022/08/16 08:57:24;;;;;;;15.65;8.55;;;;;;;42.13;24.50;98838.66;5071037;28;20195;-56
2022/08/16 08:59:51;;;;;;;9.13;8.20;;;;;;;42.15;25.29;98834.56;5070870;28;20196;-56
2022/08/16 09:02:18;;;;;;;9.05;8.45;;;;;;;41.62;25.80;98833.72;5070784;28;20223;-57
2022/08/16 09:04:46;;;;;;;9.07;8.15;;;;;;;41.21;26.16;98831.72;5070664;28;20253;-57
2022/08/16 09:07:16;;;;;;;12.25;8.50;;;;;;;41.27;26.04;98830.69;5070746;28;20200;-57
2022/08/16 09:09:43;;;;;;;8.88;8.30;;;;;;;40.77;26.52;98826.38;5070682;28;20192;-56
2022/08/16 09:12:10;;;;;;;8.80;8.05;;;;;;;40.88;26.66;98828.13;5070521;28;20199;-56
2022/08/16 09:14:38;;;;;;;8.85;8.10;;;;;;;41.08;26.46;98832.13;5070629;28;20210;-57
2022/08/16 09:17:05;;;;;;;9.48;8.65;;;;;;;40.70;26.71;98828.50;5070519;28;20213;-57
2022/08/16 09:19:33;;;;;;;8.80;8.00;;;;;;;40.82;26.39;98823.72;5070561;28;20191;-57
2022/08/16 09:22:00;;;;;;;8.55;7.88;;;;;;;40.82;26.58;98826.44;5070123;28;20223;-57
2022/08/16 09:24:28;;;;;;;9.10;8.18;;;;;;;40.86;26.73;98826.75;5070069;28;20249;-57
2022/08/16 09:26:55;;;;;;;8.05;7.50;;;;;;;40.99;26.19;98829.03;5067127;28;20275;-57
2022/08/16 09:29:22;;;;;;;8.40;7.65;;;;;;;40.86;26.50;98827.53;5069885;28;20717;-57
2022/08/16 09:31:49;;;;;;;8.93;7.93;;;;;;;40.80;26.79;98823.16;5069527;28;20624;-57
2022/08/16 09:34:16;;;;;;;7.88;7.22;;;;;;;40.85;26.69;98825.94;5067152;28;20195;-56
2022/08/16 09:36:43;;;;;;;8.30;7.60;;;;;;;40.95;26.63;98814.31;5069759;28;20196;-56
2022/08/16 09:39:10;;;;;;;7.15;6.72;;;;;;;40.94;26.53;98816.22;5069674;28;20291;-56
2022/08/16 09:41:39;;;;;;;8.88;6.75;;;;;;;40.85;27.18;98816.94;5069461;28;20602;-57
2022/08/16 09:44:06;;;;;;;11.60;6.75;;;;;;;41.30;25.73;98825.56;5069700;28;20188;-57
2022/08/16 09:46:33;;;;;;;7.63;7.20;;;;;;;41.56;25.85;98818.41;5069474;28;20195;-57
2022/08/16 09:49:00;;;;;;;12.20;7.03;;;;;;;41.65;25.50;98811.38;5069691;28;20191;-57
2022/08/16 09:51:28;;;;;;;7.15;6.72;;;;;;;41.98;24.45;98810.25;5070310;28;20412;-57
2022/08/16 09:53:55;;;;;;;6.35;5.93;;;;;;;42.13;25.01;98808.66;5070448;28;20219;-60
2022/08/16 09:56:27;;;;;;;6.63;6.07;;;;;;;42.74;23.55;98807.78;5069804;28;20234;-56
2022/08/16 09:58:56;;;;;;;6.85;6.45;;;;;;;43.18;23.14;98801.06;5069547;28;20206;-56
2022/08/16 10:01:23;;;;;;;7.00;6.43;;;;;;;43.09;23.20;98798.03;5069414;28;20207;-56
2022/08/16 10:03:51;;;;;;;6.78;6.28;;;;;;;42.92;22.99;98795.56;5066885;28;20736;-57
2022/08/16 10:06:19;;;;;;;8.07;7.38;;;;;;;42.47;24.06;98796.25;5069173;28;20206;-57
2022/08/16 10:08:46;;;;;;;6.60;6.10;;;;;;;42.09;23.81;98802.13;5069220;28;20211;-57
2022/08/16 10:13:58;;;;;;;7.32;6.53;;;;;;;42.91;23.37;98785.72;5067966;28;20280;-56
2022/08/16 10:16:25;;;;;;;6.22;5.90;;;;;;;43.49;22.73;98790.91;5069234;28;20191;-58
2022/08/16 10:18:53;;;;;;;7.28;6.70;;;;;;;43.27;23.07;98793.94;5069564;28;20202;-57
2022/08/16 10:21:21;;;;;;;6.38;5.78;;;;;;;43.36;23.04;98784.09;5069824;28;20711;-57
2022/08/16 10:23:50;;;;;;;6.22;5.25;;;;;;;42.98;22.26;98789.00;5069656;28;20199;-57
2022/08/16 10:26:18;;;;;;;6.78;5.90;;;;;;;42.16;22.74;98783.59;5069738;28;20191;-56
2022/08/16 10:28:45;;;;;;;6.18;5.68;;;;;;;40.96;24.50;98784.13;5069112;28;20631;-57
2022/08/16 10:31:13;;;;;;;5.35;5.15;;;;;;;40.08;25.54;98774.41;5069115;28;20221;-56
2022/08/16 10:33:40;;;;;;;6.47;5.95;;;;;;;39.46;26.72;98768.38;5069400;28;20195;-57
2022/08/16 10:36:09;;;;;;;5.97;5.68;;;;;;;38.84;27.70;98769.19;5069000;28;20191;-57
2022/08/16 10:38:38;;;;;;;6.25;5.75;;;;;;;38.43;27.38;98767.63;5066855;28;20209;-57
2022/08/16 10:41:06;;;;;;;5.95;5.65;;;;;;;37.68;29.16;98764.13;5068959;28;20219;-57
2022/08/16 10:43:33;;;;;;;6.70;6.25;;;;;;;37.57;29.16;98762.25;5069283;28;20664;-57
2022/08/16 10:46:02;;;;;;;6.85;6.32;;;;;;;37.48;29.49;98755.50;5068977;28;20706;-57
2022/08/16 10:48:31;;;;;;;6.13;5.50;;;;;;;37.23;29.26;98766.59;5069118;28;20196;-58
2022/08/16 10:50:58;;;;;;;6.00;5.50;;;;;;;36.97;29.57;98755.09;5069071;28;20202;-58
2022/08/16 10:53:30;;;;;;;6.43;5.80;;;;;;;36.85;30.29;98754.25;5069059;28;20689;-57
2022/08/16 10:55:58;;;;;;;6.20;5.65;;;;;;;36.80;30.38;98750.59;5069033;28;20676;-57
2022/08/16 10:58:26;;;;;;;6.25;5.75;;;;;;;36.80;30.34;98762.22;5068737;28;20210;-57
2022/08/16 11:00:53;;;;;;;5.75;5.45;;;;;;;36.70;30.53;98751.16;5069018;28;20278;-57
2022/08/16 11:03:20;;;;;;;5.72;5.22;;;;;;;36.69;30.07;98754.91;5069026;28;20200;-58
2022/08/16 11:05:49;;;;;;;5.78;5.28;;;;;;;36.54;30.41;98736.38;5068877;28;20718;-57
2022/08/16 11:08:16;;;;;;;6.15;5.75;;;;;;;36.51;31.04;98744.94;5072001;28;20283;-58
2022/08/16 11:10:46;;;;;;;5.97;5.32;;;;;;;36.52;31.31;98754.72;5072596;28;20224;-58
2022/08/16 11:13:15;;;;;;;6.40;5.63;;;;;;;36.27;31.66;98749.44;5072470;28;20196;-57
2022/08/16 11:15:43;;;;;;;6.53;5.97;;;;;;;36.15;32.38;98745.00;5072889;28;20204;-57
2022/08/16 11:18:11;;;;;;;6.38;5.78;;;;;;;36.11;32.08;98735.72;5072690;28;20589;-57
2022/08/16 11:20:39;;;;;;;6.68;5.75;;;;;;;36.09;32.79;98743.22;5072668;28;20195;-57
2022/08/16 11:23:07;;;;;;;6.38;5.97;;;;;;;36.10;32.16;98740.28;5072923;28;20226;-57
2022/08/16 11:25:34;;;;;;;6.20;5.75;;;;;;;35.87;34.02;98735.59;5072879;28;20196;-58
2022/08/16 11:28:02;;;;;;;6.88;6.10;;;;;;;35.63;34.29;98739.16;5072876;28;20238;-57
2022/08/16 11:30:30;;;;;;;5.45;5.15;;;;;;;35.50;32.90;98739.28;5072642;28;20235;-57
2022/08/16 11:32:57;;;;;;;5.72;5.43;;;;;;;35.48;33.37;98733.28;5072818;28;20196;-57
2022/08/16 11:35:26;;;;;;;6.78;6.28;;;;;;;35.53;36.18;98739.66;5072712;28;20695;-57
2022/08/16 11:37:58;;;;;;;7.10;6.18;;;;;;;35.36;32.75;98732.34;5072510;28;20287;-56